createdAt,value
2018-09-09T00:01:28.604Z,5.40
2018-09-09T00:03:57.096Z,5.23
2018-09-09T00:06:25.547Z,5.83
2018-09-09T00:08:53.973Z,5.10
2018-09-09T00:11:22.473Z,5.17
2018-09-09T00:13:50.882Z,5.17
2018-09-09T00:16:19.329Z,4.67
2018-09-09T00:18:47.753Z,5.30
2018-09-09T00:21:16.197Z,4.93
2018-09-09T00:23:44.604Z,4.77
2018-09-09T00:26:13.074Z,4.93
2018-09-09T00:28:41.484Z,4.73
2018-09-09T00:31:09.899Z,4.80
2018-09-09T00:33:38.302Z,4.70
2018-09-09T00:36:06.801Z,4.80
2018-09-09T00:38:35.254Z,5.10
2018-09-09T00:41:03.693Z,4.80
2018-09-09T00:43:32.139Z,4.67
2018-09-09T00:46:00.581Z,4.10
2018-09-09T00:48:28.990Z,4.20
2018-09-09T00:51:02.800Z,4.10
2018-09-09T00:53:36.314Z,3.77
2018-09-09T00:56:04.805Z,3.57
2018-09-09T00:58:33.259Z,3.60
2018-09-09T01:01:06.942Z,3.40
2018-09-09T01:03:35.372Z,3.40
2018-09-09T01:06:03.786Z,3.53
2018-09-09T01:08:32.225Z,3.40
2018-09-09T01:11:00.657Z,3.47
2018-09-09T01:13:29.045Z,3.20
2018-09-09T01:15:57.505Z,3.77
2018-09-09T01:18:25.917Z,3.57
2018-09-09T01:20:54.349Z,3.30
2018-09-09T01:23:22.792Z,2.80
2018-09-09T01:25:51.249Z,3.10
2018-09-09T01:28:19.661Z,3.23
2018-09-09T01:30:48.097Z,3.43
2018-09-09T01:33:16.516Z,2.77
2018-09-09T01:35:45.310Z,2.93
2018-09-09T01:38:13.719Z,3.10
2018-09-09T01:40:42.221Z,2.90
2018-09-09T01:43:10.646Z,3.13
2018-09-09T01:45:39.101Z,3.10
2018-09-09T01:48:07.537Z,3.00
2018-09-09T01:50:35.997Z,3.40
2018-09-09T01:53:04.802Z,2.90
2018-09-09T01:55:33.381Z,3.33
2018-09-09T01:58:01.816Z,3.40
2018-09-09T02:00:30.221Z,3.13
2018-09-09T02:02:58.673Z,3.40
2018-09-09T02:05:27.097Z,3.30
2018-09-09T02:07:55.529Z,3.40
2018-09-09T02:10:23.925Z,3.67
2018-09-09T02:12:52.333Z,4.70
2018-09-09T02:15:20.741Z,3.60
2018-09-09T02:17:49.161Z,4.03
2018-09-09T02:20:17.594Z,3.90
2018-09-09T02:22:46.052Z,4.30
2018-09-09T02:25:14.477Z,4.40
2018-09-09T02:27:42.953Z,4.50
2018-09-09T02:30:11.459Z,4.40
2018-09-09T02:32:39.874Z,3.90
2018-09-09T02:35:08.280Z,3.50
2018-09-09T02:37:36.737Z,4.00
2018-09-09T02:40:05.193Z,4.03
2018-09-09T02:42:33.657Z,4.00
2018-09-09T02:45:02.093Z,3.70
2018-09-09T02:47:30.518Z,4.03
2018-09-09T02:49:58.924Z,4.00
2018-09-09T02:52:27.344Z,4.10
2018-09-09T02:54:55.801Z,4.20
2018-09-09T02:57:24.221Z,3.47
2018-09-09T02:59:52.638Z,3.43
2018-09-09T03:02:21.086Z,2.90
2018-09-09T03:04:49.496Z,3.07
2018-09-09T03:07:17.955Z,3.23
2018-09-09T03:09:46.483Z,3.73
2018-09-09T03:12:14.926Z,2.90
2018-09-09T03:14:43.327Z,2.73
2018-09-09T03:17:11.790Z,2.53
2018-09-09T03:19:40.170Z,2.60
2018-09-09T03:22:08.588Z,2.63
2018-09-09T03:24:37.013Z,3.10
2018-09-09T03:27:05.470Z,2.77
2018-09-09T03:29:34.058Z,2.40
2018-09-09T03:32:02.604Z,3.10
2018-09-09T03:34:31.012Z,3.10
2018-09-09T03:36:59.431Z,3.13
2018-09-09T03:39:27.869Z,2.90
2018-09-09T03:41:56.308Z,3.20
2018-09-09T03:44:24.739Z,3.53
2018-09-09T03:46:53.167Z,4.13
2018-09-09T03:49:21.579Z,4.10
2018-09-09T03:51:50.074Z,4.30
2018-09-09T03:54:18.710Z,3.67
2018-09-09T03:56:47.122Z,4.13
2018-09-09T03:59:15.533Z,3.87
2018-09-09T04:01:43.950Z,3.77
2018-09-09T04:04:12.345Z,3.87
2018-09-09T04:06:40.704Z,3.87
2018-09-09T04:09:09.454Z,3.60
2018-09-09T04:11:37.842Z,3.60
2018-09-09T04:14:06.384Z,3.60
2018-09-09T04:16:34.772Z,3.60
2018-09-09T04:19:03.214Z,3.40
2018-09-09T04:21:35.400Z,3.67
2018-09-09T04:24:03.797Z,3.50
2018-09-09T04:26:32.204Z,3.20
2018-09-09T04:29:00.613Z,3.70
2018-09-09T04:31:28.990Z,3.43
2018-09-09T04:33:57.390Z,3.43
2018-09-09T04:36:25.789Z,3.63
2018-09-09T04:38:54.198Z,3.07
2018-09-09T04:41:22.569Z,3.93
2018-09-09T04:43:51.024Z,3.47
2018-09-09T04:46:19.422Z,3.43
2018-09-09T04:48:47.850Z,3.47
2018-09-09T04:51:16.260Z,3.10
2018-09-09T04:53:44.654Z,2.63
2018-09-09T04:56:13.033Z,3.30
2018-09-09T04:58:41.458Z,3.33
2018-09-09T05:01:09.952Z,3.70
2018-09-09T05:03:38.337Z,3.00
2018-09-09T05:06:06.761Z,2.93
2018-09-09T05:08:35.206Z,3.57
2018-09-09T05:11:03.618Z,3.07
2018-09-09T05:13:32.070Z,3.50
2018-09-09T05:16:00.477Z,3.20
2018-09-09T05:18:28.914Z,3.10
2018-09-09T05:20:57.288Z,3.70
2018-09-09T05:23:25.716Z,3.00
2018-09-09T05:25:54.140Z,3.57
2018-09-09T05:28:22.606Z,2.70
2018-09-09T05:30:51.129Z,3.50
2018-09-09T05:33:19.701Z,3.30
2018-09-09T05:35:48.150Z,3.40
2018-09-09T05:38:16.710Z,3.43
2018-09-09T05:42:09.721Z,4.17
2018-09-09T05:44:38.456Z,3.60
2018-09-09T05:47:07.132Z,3.60
2018-09-09T05:49:35.838Z,3.80
2018-09-09T05:52:04.547Z,3.10
2018-09-09T05:54:33.254Z,3.27
2018-09-09T05:57:01.895Z,3.23
2018-09-09T05:59:30.530Z,3.77
2018-09-09T06:01:59.203Z,3.30
2018-09-09T06:04:27.933Z,3.53
2018-09-09T06:06:56.667Z,2.97
2018-09-09T06:29:33.298Z,3.00
2018-09-09T06:32:01.721Z,3.23
2018-09-09T06:34:30.213Z,2.93
2018-09-09T06:36:59.419Z,2.73
2018-09-09T06:39:28.127Z,2.70
2018-09-09T06:41:56.830Z,2.60
2018-09-09T06:44:25.524Z,2.63
2018-09-09T06:46:54.155Z,2.87
2018-09-09T06:49:22.847Z,2.40
2018-09-09T06:51:51.988Z,2.53
2018-09-09T06:54:20.600Z,2.53
2018-09-09T06:56:49.362Z,2.43
2018-09-09T06:59:18.041Z,2.90
2018-09-09T07:01:46.738Z,2.70
2018-09-09T07:04:15.380Z,2.30
2018-09-09T07:06:44.080Z,2.40
2018-09-09T07:09:12.707Z,2.10
2018-09-09T07:11:41.493Z,2.10
2018-09-09T07:14:10.072Z,1.80
2018-09-09T07:16:38.758Z,2.40
2018-09-09T07:19:08.495Z,2.40
2018-09-09T07:21:37.286Z,2.37
2018-09-09T07:24:06.033Z,2.20
2018-09-09T07:26:34.568Z,1.90
2018-09-09T07:29:03.017Z,2.33
2018-09-09T07:31:31.428Z,2.20
2018-09-09T07:33:59.877Z,2.00
2018-09-09T07:36:28.289Z,1.63
2018-09-09T07:38:56.979Z,2.10
2018-09-09T07:41:25.586Z,1.80
2018-09-09T07:43:54.296Z,2.20
2018-09-09T07:46:22.895Z,1.90
2018-09-09T07:48:51.605Z,1.73
2018-09-09T07:51:21.385Z,1.83
2018-09-09T07:54:02.188Z,2.07
2018-09-09T07:56:30.942Z,2.00
2018-09-09T07:58:59.607Z,1.93
2018-09-09T08:01:28.355Z,1.67
2018-09-09T08:04:03.163Z,1.83
2018-09-09T08:06:31.846Z,1.83
2018-09-09T08:09:00.574Z,2.07
2018-09-09T08:11:34.382Z,1.40
2018-09-09T08:14:02.970Z,1.30
2018-09-09T08:16:31.679Z,2.30
2018-09-09T08:19:00.527Z,2.17
2018-09-09T08:21:29.225Z,2.23
2018-09-09T08:23:58.305Z,1.63
2018-09-09T08:26:27.008Z,1.83
2018-09-09T08:28:55.634Z,1.90
2018-09-09T08:31:25.414Z,1.70
2018-09-09T08:33:54.361Z,1.40
2018-09-09T08:36:22.975Z,1.77
2018-09-09T08:38:51.739Z,1.90
2018-09-09T08:41:20.450Z,1.80
2018-09-09T08:43:49.126Z,1.70
2018-09-09T08:46:17.854Z,1.33
2018-09-09T08:48:46.592Z,1.83
2018-09-09T08:51:15.462Z,1.47
2018-09-09T08:53:44.277Z,1.63
2018-09-09T08:56:12.919Z,1.57
2018-09-09T08:58:41.539Z,1.43
2018-09-09T09:01:10.250Z,1.80
2018-09-09T09:03:38.997Z,1.80
2018-09-09T09:06:07.891Z,1.70
2018-09-09T09:08:36.690Z,1.43
2018-09-09T09:11:05.482Z,1.90
2018-09-09T09:13:34.142Z,1.43
2018-09-09T09:16:02.807Z,1.23
2018-09-09T09:18:31.418Z,1.70
2018-09-09T09:21:00.078Z,1.20
2018-09-09T09:23:29.044Z,1.50
2018-09-09T09:25:57.781Z,1.80
2018-09-09T09:28:26.389Z,1.40
2018-09-09T09:30:55.232Z,1.40
2018-09-09T09:33:23.956Z,1.53
2018-09-09T09:35:53.825Z,1.87
2018-09-09T09:38:23.346Z,1.50
2018-09-09T09:40:52.554Z,1.90
2018-09-09T09:43:21.229Z,1.83
2018-09-09T09:45:49.981Z,1.37
2018-09-09T09:48:18.686Z,1.80
2018-09-09T09:50:47.380Z,1.47
2018-09-09T09:53:16.077Z,1.60
2018-09-09T09:55:44.786Z,1.33
2018-09-09T09:58:13.560Z,1.70
2018-09-09T10:00:47.483Z,1.67
2018-09-09T10:03:16.157Z,1.87
2018-09-09T10:05:44.904Z,1.73
2018-09-09T10:08:13.599Z,1.93
2018-09-09T10:10:42.321Z,1.80
2018-09-09T10:13:11.138Z,1.77
2018-09-09T10:15:40.107Z,1.40
2018-09-09T10:18:08.924Z,1.53
2018-09-09T10:20:38.247Z,1.13
2018-09-09T10:23:07.166Z,1.30
2018-09-09T10:25:35.922Z,1.23
2018-09-09T10:28:04.645Z,1.23
2018-09-09T10:30:33.378Z,1.27
2018-09-09T10:33:02.093Z,1.50
2018-09-09T10:35:30.726Z,1.60
2018-09-09T10:37:59.476Z,1.47
2018-09-09T10:40:28.237Z,1.50
2018-09-09T10:42:56.947Z,1.40
2018-09-09T10:45:25.695Z,1.43
2018-09-09T10:47:57.606Z,1.27
2018-09-09T10:50:26.300Z,1.60
2018-09-09T10:53:02.751Z,1.17
2018-09-09T10:55:35.124Z,1.60
2018-09-09T10:58:04.137Z,1.10
2018-09-09T11:00:34.175Z,1.13
2018-09-09T11:03:02.953Z,1.30
2018-09-09T11:05:31.739Z,1.33
2018-09-09T11:08:08.129Z,1.57
2018-09-09T11:10:49.303Z,1.40
2018-09-09T11:13:18.159Z,1.00
2018-09-09T11:15:47.039Z,1.30
2018-09-09T11:18:15.778Z,1.13
2018-09-09T11:20:44.403Z,1.13
2018-09-09T11:23:13.108Z,1.60
2018-09-09T11:25:41.793Z,1.20
2018-09-09T11:28:10.425Z,1.40
2018-09-09T11:30:39.075Z,1.87
2018-09-09T11:33:07.817Z,1.70
2018-09-09T11:35:40.331Z,1.20
2018-09-09T11:38:09.185Z,1.40
2018-09-09T11:40:37.849Z,1.60
2018-09-09T11:43:06.651Z,1.40
2018-09-09T11:45:35.455Z,1.00
2018-09-09T11:48:04.329Z,1.40
2018-09-09T11:50:33.065Z,1.43
2018-09-09T11:53:24.390Z,1.47
2018-09-09T11:55:53.749Z,1.53
2018-09-09T11:58:22.497Z,2.00
2018-09-09T12:00:51.882Z,1.63
2018-09-09T12:03:22.346Z,1.60
2018-09-09T12:05:52.886Z,1.33
2018-09-09T12:08:23.263Z,1.90
2018-09-09T12:10:52.090Z,1.50
2018-09-09T12:13:20.918Z,1.50
2018-09-09T12:15:49.670Z,1.20
2018-09-09T12:18:18.423Z,1.50
2018-09-09T12:20:47.634Z,1.57
2018-09-09T12:23:16.471Z,1.63
2018-09-09T12:25:45.191Z,1.80
2018-09-09T12:28:14.049Z,1.50
2018-09-09T12:30:42.844Z,1.47
2018-09-09T12:33:11.711Z,1.40
2018-09-09T12:35:40.502Z,1.60
2018-09-09T12:38:28.032Z,1.73
2018-09-09T12:40:56.531Z,1.43
2018-09-09T12:43:30.337Z,1.23
2018-09-09T12:46:04.082Z,1.40
2018-09-09T12:48:37.981Z,1.43
2018-09-09T12:51:06.537Z,1.53
2018-09-09T12:53:34.994Z,1.07
2018-09-09T12:56:03.429Z,1.40
2018-09-09T12:58:31.879Z,1.43
2018-09-09T13:01:00.316Z,1.50
2018-09-09T13:03:29.605Z,1.40
2018-09-09T13:05:58.088Z,1.70
2018-09-09T13:08:26.530Z,1.47
2018-09-09T13:10:54.979Z,1.43
2018-09-09T13:13:23.388Z,1.30
2018-09-09T13:15:51.804Z,1.57
2018-09-09T13:18:20.303Z,1.37
2018-09-09T13:20:49.815Z,1.50
2018-09-09T13:23:18.330Z,1.50
2018-09-09T13:25:46.733Z,1.40
2018-09-09T13:28:15.209Z,1.60
2018-09-09T13:30:43.674Z,1.50
2018-09-09T13:33:28.695Z,1.35
2018-09-09T13:35:57.180Z,1.62
2018-09-09T13:38:25.602Z,1.10
2018-09-09T13:40:54.021Z,1.45
2018-09-09T13:43:22.493Z,1.60
2018-09-09T13:45:51.112Z,1.47
2018-09-09T13:48:19.660Z,1.55
2018-09-09T13:50:55.808Z,2.00
2018-09-09T13:53:24.228Z,1.70
2018-09-09T13:55:52.625Z,1.32
2018-09-09T13:58:21.127Z,1.30
2018-09-09T14:00:49.670Z,1.50
2018-09-09T14:03:18.157Z,1.40
2018-09-09T14:05:46.622Z,1.32
2018-09-09T14:08:15.073Z,1.52
2018-09-09T14:10:43.502Z,1.77
2018-09-09T14:13:11.913Z,1.45
2018-09-09T14:15:40.346Z,1.30
2018-09-09T14:18:08.925Z,2.02
2018-09-09T14:20:37.381Z,2.17
2018-09-09T14:23:15.849Z,1.52
2018-09-09T14:25:44.295Z,1.57
2018-09-09T14:28:12.738Z,1.80
2018-09-09T14:30:43.897Z,1.50
2018-09-09T14:33:16.630Z,1.98
2018-09-09T14:35:46.295Z,1.90
2018-09-09T14:38:33.304Z,1.37
2018-09-09T14:41:01.794Z,1.25
2018-09-09T14:43:30.225Z,1.45
2018-09-09T14:46:09.243Z,1.27
2018-09-09T14:48:37.769Z,1.60
2018-09-09T14:51:06.372Z,1.57
2018-09-09T14:53:34.949Z,1.55
2018-09-09T14:56:03.300Z,1.70
2018-09-09T14:58:37.894Z,1.90
2018-09-09T15:01:06.432Z,1.77
2018-09-09T15:03:34.926Z,1.57
2018-09-09T15:06:03.409Z,1.30
2018-09-09T15:08:31.894Z,1.40
2018-09-09T15:11:00.355Z,1.45
2018-09-09T15:13:29.971Z,1.40
2018-09-09T15:15:58.414Z,1.60
2018-09-09T15:18:26.888Z,1.60
2018-09-09T15:20:55.306Z,1.63
2018-09-09T15:23:23.742Z,1.53
2018-09-09T15:25:52.230Z,1.23
2018-09-09T15:28:21.589Z,1.60
2018-09-09T15:30:50.557Z,1.80
2018-09-09T15:33:20.125Z,1.53
2018-09-09T15:35:49.646Z,1.43
2018-09-09T15:38:18.969Z,1.53
2018-09-09T15:40:48.785Z,2.03
2018-09-09T15:43:18.124Z,1.37
2018-09-09T15:45:47.826Z,1.30
2018-09-09T15:48:17.554Z,1.23
2018-09-09T15:50:47.117Z,1.63
2018-09-09T15:53:16.657Z,1.40
2018-09-09T15:55:46.846Z,1.73
2018-09-09T15:58:16.877Z,1.70
2018-09-09T16:00:47.090Z,1.63
2018-09-09T16:03:15.858Z,1.60
2018-09-09T16:05:44.753Z,1.43
2018-09-09T16:08:13.905Z,1.53
2018-09-09T16:10:43.479Z,1.40
2018-09-09T16:13:13.369Z,1.47
2018-09-09T16:15:42.598Z,1.57
2018-09-09T16:18:11.547Z,1.47
2018-09-09T16:20:40.785Z,1.47
2018-09-09T16:23:10.152Z,1.47
2018-09-09T16:25:39.793Z,1.63
2018-09-09T16:28:08.901Z,1.30
2018-09-09T16:30:38.856Z,1.53
2018-09-09T16:33:07.373Z,1.10
2018-09-09T16:35:36.452Z,1.53
2018-09-09T16:38:05.997Z,1.67
2018-09-09T16:40:35.714Z,1.40
2018-09-09T16:43:05.006Z,1.20
2018-09-09T16:45:34.606Z,1.77
2018-09-09T16:48:05.093Z,1.60
2018-09-09T16:50:34.129Z,2.47
2018-09-09T16:53:03.757Z,2.30
2018-09-09T16:55:33.195Z,2.27
2018-09-09T16:58:02.114Z,1.73
2018-09-09T17:00:31.046Z,1.33
2018-09-09T17:03:00.024Z,1.67
2018-09-09T17:05:30.090Z,2.00
2018-09-09T17:07:59.615Z,1.40
2018-09-09T17:10:28.593Z,1.33
2018-09-09T17:15:32.345Z,1.60
2018-09-09T17:18:02.701Z,2.13
2018-09-09T17:20:32.847Z,1.80
2018-09-09T17:23:01.763Z,1.60
2018-09-09T17:25:31.506Z,1.40
2018-09-09T17:28:04.607Z,1.40
2018-09-09T17:30:33.018Z,1.47
2018-09-09T17:33:04.145Z,1.40
2018-09-09T17:35:33.847Z,1.63
2018-09-09T17:38:03.777Z,1.33
2018-09-09T17:40:33.920Z,1.43
2018-09-09T17:43:03.366Z,1.60
2018-09-09T17:45:33.110Z,1.60
2018-09-09T17:48:01.949Z,2.30
2018-09-09T17:50:29.364Z,2.40
2018-09-09T17:52:57.953Z,3.33
2018-09-09T17:55:26.363Z,3.07
2018-09-09T17:57:54.793Z,2.73
2018-09-09T18:00:23.263Z,3.17
2018-09-09T18:02:52.877Z,2.30
2018-09-09T18:05:21.326Z,1.67
2018-09-09T18:07:49.762Z,1.70
2018-09-09T18:10:18.181Z,1.30
2018-09-09T18:12:47.026Z,1.50
2018-09-09T18:15:15.429Z,1.87
2018-09-09T18:17:43.824Z,1.60
2018-09-09T18:20:12.309Z,1.37
2018-09-09T18:22:40.738Z,1.63
2018-09-09T18:25:09.203Z,1.60
2018-09-09T18:27:38.913Z,1.60
2018-09-09T18:30:07.706Z,1.80
2018-09-09T18:32:36.530Z,1.70
2018-09-09T18:35:05.457Z,1.80
2018-09-09T18:37:34.187Z,1.50
2018-09-09T18:54:28.193Z,2.40
2018-09-09T18:56:56.924Z,1.87
2018-09-09T18:59:26.026Z,2.07
2018-09-09T19:01:54.701Z,1.70
2018-09-09T19:04:23.345Z,1.63
2018-09-09T19:06:52.253Z,1.80
2018-09-09T19:09:20.982Z,1.13
2018-09-09T19:11:49.753Z,1.90
2018-09-09T19:14:18.430Z,1.47
2018-09-09T19:16:47.177Z,1.77
2018-09-09T19:19:15.861Z,1.70
2018-09-09T19:21:44.607Z,2.20
2018-09-09T19:24:16.682Z,1.90
2018-09-09T19:26:45.440Z,1.87
2018-09-09T19:29:14.069Z,2.30
2018-09-09T19:31:43.058Z,2.33
2018-09-09T19:34:14.119Z,1.97
2018-09-09T19:36:42.539Z,2.20
2018-09-09T19:39:14.706Z,1.70
2018-09-09T19:41:43.165Z,2.10
2018-09-09T19:44:11.618Z,2.00
2018-09-09T19:46:39.994Z,1.83
2018-09-09T19:49:08.465Z,2.10
2018-09-09T19:51:36.990Z,2.23
2018-09-09T19:54:05.577Z,1.70
2018-09-09T19:56:37.361Z,2.27
2018-09-09T19:59:09.379Z,1.97
2018-09-09T20:01:37.808Z,1.80
2018-09-09T20:04:06.255Z,1.87
2018-09-09T20:06:34.670Z,1.70
2018-09-09T20:09:07.928Z,2.00
2018-09-09T20:11:36.476Z,2.20
2018-09-09T20:14:05.961Z,1.90
2018-09-09T20:16:34.407Z,2.03
2018-09-09T20:19:03.165Z,2.57
2018-09-09T20:21:31.976Z,2.10
2018-09-09T20:24:05.311Z,2.03
2018-09-09T20:26:34.097Z,2.00
2018-09-09T20:29:02.821Z,1.73
2018-09-09T20:31:31.538Z,1.93
2018-09-09T20:34:00.185Z,2.00
2018-09-09T20:36:28.945Z,1.90
2018-09-09T20:38:57.789Z,2.17
2018-09-09T20:41:26.544Z,2.00
2018-09-09T20:43:55.298Z,2.40
2018-09-09T20:46:24.064Z,2.03
2018-09-09T20:48:52.880Z,2.10
2018-09-09T20:51:21.508Z,2.40
2018-09-09T20:53:50.259Z,2.23
2018-09-09T20:56:19.118Z,2.20
2018-09-09T21:04:43.798Z,2.20
2018-09-09T21:07:12.518Z,2.63
2018-09-09T21:09:41.370Z,1.93
2018-09-09T21:12:11.138Z,2.17
2018-09-09T21:14:39.910Z,2.10
2018-09-09T21:17:08.818Z,2.03
2018-09-09T21:19:37.585Z,2.07
2018-09-09T21:22:06.686Z,2.70
2018-09-09T21:24:35.484Z,2.50
2018-09-09T21:27:04.344Z,2.40
2018-09-09T21:29:33.144Z,2.37
2018-09-09T21:32:01.783Z,2.40
2018-09-09T21:34:30.654Z,2.43
2018-09-09T21:36:59.528Z,2.50
2018-09-09T21:39:28.293Z,2.23
2018-09-09T21:41:57.012Z,2.50
2018-09-09T21:44:25.928Z,2.73
2018-09-09T21:46:54.516Z,2.53
2018-09-09T21:49:23.157Z,2.50
2018-09-09T21:51:51.621Z,2.53
2018-09-09T21:54:20.043Z,2.80
2018-09-09T21:56:48.446Z,2.50
2018-09-09T21:59:16.865Z,1.90
2018-09-09T22:01:50.657Z,2.20
2018-09-09T22:04:19.107Z,2.13
2018-09-09T22:06:47.517Z,2.47
2018-09-09T22:09:15.938Z,2.30
2018-09-09T22:11:44.341Z,2.20
2018-09-09T22:14:12.811Z,2.37
2018-09-09T22:16:41.248Z,2.30
2018-09-09T22:19:09.821Z,2.20
2018-09-09T22:21:38.277Z,2.37
2018-09-09T22:24:12.702Z,2.57
2018-09-09T22:26:41.113Z,2.33
2018-09-09T22:29:09.549Z,2.13
2018-09-09T22:31:37.956Z,2.33
2018-09-09T22:34:06.495Z,2.50
2018-09-09T22:36:34.909Z,2.63
2018-09-09T22:39:03.624Z,2.27
2018-09-09T22:41:32.048Z,2.33
2018-09-09T22:44:00.521Z,2.50
2018-09-09T22:46:29.040Z,2.70
2018-09-09T22:48:57.482Z,2.60
2018-09-09T22:51:25.924Z,2.70
2018-09-09T22:56:28.070Z,2.33
2018-09-09T22:58:56.500Z,2.50
2018-09-09T23:01:24.926Z,2.50
2018-09-09T23:03:53.369Z,2.70
2018-09-09T23:06:21.799Z,2.33
2018-09-09T23:08:50.250Z,2.70
2018-09-09T23:11:18.654Z,2.27
2018-09-09T23:13:47.101Z,2.37
2018-09-09T23:16:15.507Z,2.43
2018-09-09T23:18:43.927Z,2.40
2018-09-09T23:21:12.835Z,2.57
2018-09-09T23:23:41.583Z,2.20
2018-09-09T23:26:10.186Z,2.47
2018-09-09T23:28:38.885Z,2.23
2018-09-09T23:31:07.472Z,2.23
2018-09-09T23:33:35.937Z,2.00
2018-09-09T23:36:04.345Z,2.20
2018-09-09T23:38:32.772Z,2.10
2018-09-09T23:41:01.249Z,2.20
2018-09-09T23:43:29.686Z,2.10
2018-09-09T23:45:58.085Z,2.07
2018-09-09T23:48:26.491Z,2.10
2018-09-09T23:50:55.922Z,2.57
2018-09-09T23:53:24.350Z,2.20
2018-09-09T23:55:52.786Z,2.17
2018-09-09T23:58:21.214Z,2.20
